createdAt,value
2022-12-20T06:18:39.847Z,89.70
2022-12-20T06:21:41.478Z,89.70
2022-12-20T06:24:48.198Z,89.70
2022-12-20T06:27:50.544Z,89.70
2022-12-20T06:30:56.129Z,89.60
2022-12-20T06:33:57.770Z,89.60
2022-12-20T06:36:59.414Z,89.50
2022-12-20T06:40:02.475Z,89.40
2022-12-20T06:43:04.165Z,89.40
2022-12-20T06:46:06.392Z,89.40
2022-12-20T06:49:08.375Z,89.30
2022-12-20T06:52:10.027Z,89.10
2022-12-20T06:55:11.744Z,89.10
2022-12-20T06:58:13.694Z,89.00
2022-12-20T07:01:15.424Z,88.90
2022-12-20T07:04:17.147Z,89.00
2022-12-20T07:07:18.977Z,89.10
2022-12-20T07:10:20.918Z,89.10
2022-12-20T07:13:22.749Z,88.90
2022-12-20T07:16:24.585Z,88.90
2022-12-20T07:19:26.518Z,88.90
2022-12-20T07:22:28.177Z,88.90
2022-12-20T07:25:29.816Z,88.80
2022-12-20T07:28:31.764Z,88.80
2022-12-20T07:31:33.550Z,88.70
2022-12-20T07:34:37.169Z,88.70
2022-12-20T07:37:38.868Z,88.40
2022-12-20T07:40:42.151Z,88.50
2022-12-20T07:43:43.803Z,88.20
2022-12-20T07:46:45.510Z,88.20
2022-12-20T07:49:49.380Z,88.30
2022-12-20T07:52:51.047Z,88.50
2022-12-20T07:55:52.903Z,88.50
2022-12-20T07:58:58.218Z,88.50
2022-12-20T08:02:04.744Z,88.40
2022-12-20T08:05:07.854Z,88.50
2022-12-20T08:08:09.905Z,88.30
2022-12-20T08:11:11.562Z,88.30
2022-12-20T08:14:13.372Z,88.60
2022-12-20T08:17:15.062Z,88.70
2022-12-20T08:20:16.873Z,89.00
2022-12-20T08:23:19.539Z,88.90
2022-12-20T08:26:21.195Z,89.00
2022-12-20T08:29:22.960Z,89.10
2022-12-20T08:32:24.638Z,89.10
2022-12-20T08:35:26.890Z,89.20
2022-12-20T08:38:31.720Z,89.20
2022-12-20T08:41:34.612Z,89.00
2022-12-20T08:44:36.235Z,89.00
2022-12-20T08:47:39.014Z,88.90
2022-12-20T08:50:40.737Z,88.60
2022-12-20T08:53:42.414Z,88.20
2022-12-20T08:56:44.066Z,87.90
2022-12-20T08:59:45.916Z,87.90
2022-12-20T09:02:49.020Z,88.00
2022-12-20T09:05:50.950Z,87.70
2022-12-20T09:08:52.829Z,87.70
2022-12-20T09:11:54.487Z,87.70
2022-12-20T09:14:56.233Z,87.50
2022-12-20T09:17:58.042Z,87.30
2022-12-20T09:21:03.736Z,86.80
2022-12-20T09:24:06.297Z,86.60
2022-12-20T09:27:07.960Z,86.50
2022-12-20T09:30:10.055Z,86.20
2022-12-20T09:33:11.740Z,86.10
2022-12-20T09:36:18.845Z,85.90
2022-12-20T09:39:20.759Z,85.60
2022-12-20T09:42:24.201Z,85.40
2022-12-20T09:45:28.203Z,85.40
2022-12-20T09:48:35.363Z,84.90
2022-12-20T09:51:39.815Z,84.80
2022-12-20T09:54:57.342Z,84.70
2022-12-20T09:58:24.296Z,84.60
2022-12-20T10:01:30.036Z,84.60
2022-12-20T10:04:34.505Z,84.80
2022-12-20T10:07:42.027Z,84.90
2022-12-20T10:10:46.472Z,85.00
2022-12-20T10:14:37.351Z,85.00
2022-12-20T10:18:09.892Z,84.70
2022-12-20T10:21:37.516Z,84.40
2022-12-20T10:24:39.112Z,84.50
2022-12-20T10:27:43.701Z,84.30
2022-12-20T10:30:45.353Z,84.30
2022-12-20T10:33:46.980Z,84.30
2022-12-20T10:36:48.627Z,84.30
2022-12-20T10:39:51.363Z,84.10
2022-12-20T10:42:53.351Z,83.90
2022-12-20T10:46:02.501Z,83.90
2022-12-20T10:49:23.503Z,83.80
2022-12-20T10:52:25.178Z,83.60
2022-12-20T10:55:35.590Z,83.20
2022-12-20T10:58:37.416Z,83.00
2022-12-20T11:01:39.137Z,83.00
2022-12-20T11:04:40.848Z,82.70
2022-12-20T11:11:20.525Z,82.20
2022-12-20T11:14:22.425Z,82.00
2022-12-20T11:17:29.647Z,82.00
2022-12-20T11:20:37.131Z,82.00
2022-12-20T11:23:55.952Z,82.10
2022-12-20T11:27:25.650Z,81.90
2022-12-20T11:30:39.904Z,81.70
2022-12-20T11:33:56.335Z,81.60
2022-12-20T11:37:25.276Z,81.20
2022-12-20T11:40:31.709Z,80.60
2022-12-20T11:47:45.128Z,79.90
2022-12-20T11:51:08.690Z,79.20
2022-12-20T11:54:38.208Z,78.90
2022-12-20T11:58:18.537Z,78.80
2022-12-20T12:01:30.710Z,78.90
2022-12-20T12:04:38.911Z,78.80
2022-12-20T12:07:40.652Z,78.50
2022-12-20T12:10:44.395Z,78.30
2022-12-20T12:13:46.138Z,77.70
2022-12-20T12:16:48.720Z,77.50
2022-12-20T12:19:50.549Z,77.30
2022-12-20T12:22:56.171Z,76.90
2022-12-20T12:26:00.259Z,76.80
2022-12-20T12:29:08.875Z,76.90
2022-12-20T12:32:31.201Z,76.90
2022-12-20T12:36:01.543Z,76.70
2022-12-20T12:39:53.119Z,76.60
2022-12-20T12:43:16.374Z,76.50
2022-12-20T12:46:32.365Z,76.10
2022-12-20T12:49:34.223Z,76.00
2022-12-20T12:52:41.205Z,75.70
2022-12-20T12:55:50.483Z,75.20
2022-12-20T12:59:07.882Z,74.70
2022-12-20T13:02:16.204Z,74.20
2022-12-20T13:05:26.013Z,74.30
2022-12-20T13:08:47.767Z,74.30
2022-12-20T13:11:57.403Z,73.80
2022-12-20T13:15:02.159Z,73.70
2022-12-20T13:18:13.298Z,73.00
2022-12-20T13:21:39.218Z,72.80
2022-12-20T13:24:50.594Z,72.20
2022-12-20T13:27:52.631Z,72.10
2022-12-20T13:31:04.497Z,72.00
2022-12-20T13:34:38.539Z,71.80
2022-12-20T13:37:56.723Z,71.40
2022-12-20T13:41:01.644Z,71.50
2022-12-20T13:44:16.987Z,71.80
2022-12-20T13:47:38.806Z,72.20
2022-12-20T13:50:40.774Z,72.20
2022-12-20T13:53:55.397Z,72.10
2022-12-20T13:56:57.070Z,72.30
2022-12-20T14:00:06.823Z,72.20
2022-12-20T14:03:40.098Z,72.20
2022-12-20T14:06:41.898Z,72.30
2022-12-20T14:09:45.516Z,72.50
2022-12-20T14:12:47.272Z,72.50
2022-12-20T14:15:49.030Z,72.70
2022-12-20T14:18:51.714Z,73.00
2022-12-20T14:21:53.430Z,73.00
2022-12-20T14:24:55.088Z,72.50
2022-12-20T14:27:57.974Z,72.80
2022-12-20T14:31:01.081Z,72.80
2022-12-20T14:34:11.951Z,72.80
2022-12-20T14:37:36.119Z,73.00
2022-12-20T14:40:46.659Z,73.10
2022-12-20T14:43:55.593Z,73.40
2022-12-20T14:47:04.845Z,73.40
2022-12-20T14:50:31.401Z,73.60
2022-12-20T14:53:33.043Z,73.80
2022-12-20T14:56:34.729Z,74.20
2022-12-20T14:59:36.447Z,74.30
2022-12-20T15:02:47.396Z,74.60
2022-12-20T15:05:53.804Z,74.70
2022-12-20T15:08:55.599Z,74.60
2022-12-20T15:11:57.354Z,74.70
2022-12-20T15:15:17.838Z,75.00
2022-12-20T15:18:21.319Z,75.20
2022-12-20T15:21:34.000Z,75.60
2022-12-20T15:24:35.672Z,75.80
2022-12-20T15:27:37.371Z,76.10
2022-12-20T15:30:39.045Z,76.50
2022-12-20T15:33:41.434Z,76.70
2022-12-20T15:36:43.157Z,77.10
2022-12-20T15:39:45.038Z,77.30
2022-12-20T15:42:46.670Z,77.70
2022-12-20T15:45:52.590Z,77.90
2022-12-20T15:48:54.638Z,78.10
2022-12-20T15:51:56.305Z,78.40
2022-12-20T15:54:57.977Z,78.60
2022-12-20T15:57:59.813Z,78.90
2022-12-20T16:01:03.962Z,79.00
2022-12-20T16:04:06.280Z,79.10
2022-12-20T16:07:12.468Z,79.30
2022-12-20T16:10:15.277Z,79.60
2022-12-20T16:13:26.471Z,80.00
2022-12-20T16:16:37.933Z,80.20
2022-12-20T16:19:40.134Z,80.50
2022-12-20T16:22:41.952Z,80.50
2022-12-20T16:25:43.712Z,80.40
2022-12-20T16:28:47.785Z,80.40
2022-12-20T16:31:49.621Z,80.30
2022-12-20T16:34:51.476Z,80.40
2022-12-20T16:37:55.573Z,80.50
2022-12-20T16:40:58.935Z,80.70
2022-12-20T16:44:01.676Z,80.80
2022-12-20T16:47:03.414Z,81.00
2022-12-20T16:50:08.049Z,81.20
2022-12-20T16:53:14.054Z,81.40
2022-12-20T16:56:15.730Z,81.60
2022-12-20T16:59:19.759Z,81.90
2022-12-20T17:02:29.886Z,82.10
2022-12-20T17:05:33.807Z,82.10
2022-12-20T17:11:54.498Z,82.10
2022-12-20T17:14:56.633Z,82.00
2022-12-20T17:17:58.489Z,81.90
2022-12-20T17:21:01.908Z,81.90
2022-12-20T17:24:06.269Z,81.90
2022-12-20T17:27:10.519Z,82.00
2022-12-20T17:30:12.535Z,82.20
2022-12-20T17:33:14.924Z,82.40
2022-12-20T17:36:16.572Z,82.70
2022-12-20T17:39:18.365Z,82.90
2022-12-20T17:42:23.151Z,83.00
2022-12-20T17:45:32.772Z,83.10
2022-12-20T17:48:37.754Z,83.30
2022-12-20T17:51:43.826Z,83.50
2022-12-20T17:54:45.492Z,83.50
2022-12-20T17:57:47.432Z,83.60
2022-12-20T18:00:49.647Z,83.70
2022-12-20T18:04:07.445Z,83.70
2022-12-20T18:07:09.255Z,83.90
2022-12-20T18:10:11.212Z,84.00
2022-12-20T18:13:12.863Z,84.10
2022-12-20T18:16:16.161Z,84.00
2022-12-20T18:19:18.877Z,84.10
2022-12-20T18:22:20.564Z,84.10
2022-12-20T18:25:22.225Z,84.10
2022-12-20T18:28:24.009Z,84.10
2022-12-20T18:31:27.081Z,84.10
2022-12-20T18:34:28.844Z,84.00
2022-12-20T18:37:30.484Z,83.90
2022-12-20T18:40:32.195Z,84.00
2022-12-20T18:43:34.620Z,84.00
2022-12-20T18:46:36.403Z,84.00
2022-12-20T18:49:38.481Z,84.10
2022-12-20T18:52:46.991Z,84.00
2022-12-20T18:55:50.895Z,83.90
2022-12-20T18:58:52.672Z,83.90
2022-12-20T19:01:57.656Z,84.00
2022-12-20T19:04:59.411Z,84.00
2022-12-20T19:08:01.497Z,84.30
2022-12-20T19:11:07.868Z,84.40
2022-12-20T19:14:09.674Z,84.50
2022-12-20T19:17:14.181Z,84.50
2022-12-20T19:20:21.034Z,84.60
2022-12-20T19:23:22.745Z,84.70
2022-12-20T19:26:28.721Z,84.70
2022-12-20T19:29:33.103Z,84.90
2022-12-20T19:32:34.745Z,85.10
2022-12-20T19:39:01.620Z,85.10
2022-12-20T19:42:23.460Z,85.10
2022-12-20T19:45:26.347Z,85.10
2022-12-20T19:48:32.946Z,85.10
2022-12-20T19:51:37.613Z,85.10
2022-12-20T19:54:39.825Z,85.10
2022-12-20T19:57:44.718Z,85.10
2022-12-20T20:00:49.970Z,85.20
2022-12-20T20:03:52.718Z,85.40
2022-12-20T20:06:57.548Z,85.40
2022-12-20T20:09:59.327Z,85.50
2022-12-20T20:13:00.976Z,85.60
2022-12-20T20:16:03.323Z,85.70
2022-12-20T20:19:05.584Z,85.70
2022-12-20T20:22:07.445Z,85.70
2022-12-20T20:28:41.875Z,85.70
2022-12-20T20:31:46.974Z,85.70
2022-12-20T20:34:49.008Z,85.70
2022-12-20T20:38:09.823Z,85.50
2022-12-20T20:41:11.579Z,85.40
2022-12-20T20:44:13.325Z,85.30
2022-12-20T20:47:15.321Z,85.20
2022-12-20T20:50:18.035Z,85.20
2022-12-20T20:53:19.783Z,85.10
2022-12-20T20:56:21.530Z,85.10
2022-12-20T20:59:23.983Z,85.30
2022-12-20T21:02:25.724Z,85.40
2022-12-20T21:08:49.216Z,85.60
2022-12-20T21:11:51.029Z,85.70
2022-12-20T21:15:21.365Z,85.70
2022-12-20T21:18:15.071Z,85.60
2022-12-20T21:21:16.799Z,85.60
2022-12-20T21:24:18.665Z,85.40
2022-12-20T21:27:20.319Z,85.30
2022-12-20T21:30:23.702Z,85.40
2022-12-20T21:33:25.356Z,85.50
2022-12-20T21:36:27.111Z,85.50
2022-12-20T21:39:28.843Z,85.50
2022-12-20T21:42:31.348Z,85.60
2022-12-20T21:45:34.138Z,85.70
2022-12-20T21:48:36.012Z,85.80
2022-12-20T21:51:37.658Z,85.70
2022-12-20T21:54:39.435Z,85.60
2022-12-20T21:57:41.167Z,85.70
2022-12-20T22:00:43.153Z,85.70
2022-12-20T22:03:55.388Z,85.80
2022-12-20T22:06:57.465Z,86.00
2022-12-20T22:09:59.223Z,86.20
2022-12-20T22:13:00.909Z,86.40
2022-12-20T22:16:09.763Z,86.60
2022-12-20T22:19:13.043Z,86.70
2022-12-20T22:22:15.208Z,86.80
2022-12-20T22:25:16.898Z,86.80
2022-12-20T22:28:18.639Z,86.70
2022-12-20T22:31:20.651Z,86.70
2022-12-20T22:34:22.358Z,86.70
2022-12-20T22:37:27.422Z,86.90
2022-12-20T22:40:29.374Z,86.90
2022-12-20T22:43:33.804Z,87.00
2022-12-20T22:46:38.317Z,87.20
2022-12-20T22:49:40.185Z,87.20
2022-12-20T22:52:41.808Z,87.20
2022-12-20T22:55:43.515Z,87.30
2022-12-20T22:58:45.870Z,87.60
2022-12-20T23:01:50.470Z,87.60
2022-12-20T23:04:55.581Z,87.70
2022-12-20T23:07:57.575Z,87.60
2022-12-20T23:11:18.084Z,87.60
2022-12-20T23:14:39.513Z,87.60
2022-12-20T23:17:41.166Z,87.70
2022-12-20T23:21:11.979Z,87.70
2022-12-20T23:24:14.675Z,87.70
2022-12-20T23:27:16.491Z,87.70
2022-12-20T23:30:21.155Z,87.80
2022-12-20T23:33:22.814Z,87.90
2022-12-20T23:36:24.557Z,88.00
2022-12-20T23:39:26.535Z,88.00
2022-12-20T23:42:28.261Z,88.00
2022-12-20T23:45:30.285Z,87.90
2022-12-20T23:48:32.646Z,87.90
2022-12-20T23:51:34.615Z,88.00
2022-12-20T23:54:36.352Z,88.00
2022-12-20T23:57:38.153Z,88.00
